sensor_id;sensor_type;location;lat;lon;timestamp;pressure;altitude;pressure_sealevel;temperature;humidity
6413;BME280;3239;48.714;9.472;2023-04-08T00:02:05;98826.53;;;8.14;100.00
6413;BME280;3239;48.714;9.472;2023-04-08T00:04:30;98831.75;;;8.17;100.00
6413;BME280;3239;48.714;9.472;2023-04-08T00:06:56;98838.22;;;8.20;100.00
6413;BME280;3239;48.714;9.472;2023-04-08T00:09:22;98824.59;;;8.20;100.00
6413;BME280;3239;48.714;9.472;2023-04-08T00:11:48;98838.00;;;8.23;100.00
6413;BME280;3239;48.714;9.472;2023-04-08T00:14:13;98836.22;;;8.20;100.00
6413;BME280;3239;48.714;9.472;2023-04-08T00:16:39;98834.72;;;8.19;100.00
6413;BME280;3239;48.714;9.472;2023-04-08T00:19:05;98835.97;;;8.18;100.00
6413;BME280;3239;48.714;9.472;2023-04-08T00:21:31;98832.47;;;8.18;100.00
6413;BME280;3239;48.714;9.472;2023-04-08T00:23:57;98832.72;;;8.14;100.00
6413;BME280;3239;48.714;9.472;2023-04-08T00:26:22;98837.94;;;8.18;100.00
6413;BME280;3239;48.714;9.472;2023-04-08T00:28:48;98832.94;;;8.11;100.00
6413;BME280;3239;48.714;9.472;2023-04-08T00:31:14;98836.19;;;8.15;100.00
6413;BME280;3239;48.714;9.472;2023-04-08T00:33:40;98835.97;;;8.18;100.00
6413;BME280;3239;48.714;9.472;2023-04-08T00:36:06;98835.72;;;8.16;100.00
6413;BME280;3239;48.714;9.472;2023-04-08T00:38:31;98844.34;;;8.04;100.00
6413;BME280;3239;48.714;9.472;2023-04-08T00:40:57;98835.84;;;7.91;100.00
6413;BME280;3239;48.714;9.472;2023-04-08T00:43:23;98842.78;;;7.86;100.00
6413;BME280;3239;48.714;9.472;2023-04-08T00:45:49;98852.25;;;7.96;100.00
6413;BME280;3239;48.714;9.472;2023-04-08T00:48:14;98851.22;;;7.88;100.00
6413;BME280;3239;48.714;9.472;2023-04-08T00:50:42;98861.44;;;7.99;100.00
6413;BME280;3239;48.714;9.472;2023-04-08T00:53:08;98860.97;;;8.00;100.00
6413;BME280;3239;48.714;9.472;2023-04-08T00:55:35;98861.44;;;7.99;100.00
6413;BME280;3239;48.714;9.472;2023-04-08T00:58:00;98864.91;;;7.99;100.00
6413;BME280;3239;48.714;9.472;2023-04-08T01:00:28;98873.03;;;7.88;100.00
6413;BME280;3239;48.714;9.472;2023-04-08T01:03:15;98873.75;;;7.83;100.00
6413;BME280;3239;48.714;9.472;2023-04-08T01:08:37;98870.53;;;7.79;100.00
6413;BME280;3239;48.714;9.472;2023-04-08T01:11:10;98881.44;;;7.85;100.00
6413;BME280;3239;48.714;9.472;2023-04-08T01:13:39;98885.72;;;7.91;100.00
6413;BME280;3239;48.714;9.472;2023-04-08T01:16:09;98889.69;;;7.96;100.00
6413;BME280;3239;48.714;9.472;2023-04-08T01:18:38;98889.22;;;7.97;100.00
6413;BME280;3239;48.714;9.472;2023-04-08T01:21:05;98876.28;;;7.87;100.00
6413;BME280;3239;48.714;9.472;2023-04-08T01:26:24;98894.38;;;7.84;100.00
6413;BME280;3239;48.714;9.472;2023-04-08T01:28:54;98892.59;;;7.81;100.00
6413;BME280;3239;48.714;9.472;2023-04-08T01:31:21;98886.31;;;7.70;100.00
6413;BME280;3239;48.714;9.472;2023-04-08T01:33:49;98891.56;;;7.73;100.00
6413;BME280;3239;48.714;9.472;2023-04-08T01:36:16;98895.50;;;7.72;100.00
6413;BME280;3239;48.714;9.472;2023-04-08T01:38:42;98896.75;;;7.71;100.00
6413;BME280;3239;48.714;9.472;2023-04-08T01:41:10;98900.47;;;7.68;100.00
6413;BME280;3239;48.714;9.472;2023-04-08T01:43:38;98902.97;;;7.72;100.00
6413;BME280;3239;48.714;9.472;2023-04-08T01:46:07;98905.16;;;7.68;100.00
6413;BME280;3239;48.714;9.472;2023-04-08T01:48:35;98907.13;;;7.67;100.00
6413;BME280;3239;48.714;9.472;2023-04-08T01:51:01;98904.63;;;7.64;100.00
6413;BME280;3239;48.714;9.472;2023-04-08T01:53:28;98899.88;;;7.59;100.00
6413;BME280;3239;48.714;9.472;2023-04-08T01:56:07;98906.63;;;7.63;100.00
6413;BME280;3239;48.714;9.472;2023-04-08T01:58:42;98909.84;;;7.67;100.00
6413;BME280;3239;48.714;9.472;2023-04-08T02:01:13;98906.34;;;7.56;100.00
6413;BME280;3239;48.714;9.472;2023-04-08T02:04:32;98897.91;;;7.59;100.00
6413;BME280;3239;48.714;9.472;2023-04-08T02:06:58;98909.78;;;7.56;100.00
6413;BME280;3239;48.714;9.472;2023-04-08T02:09:25;98906.81;;;7.54;100.00
6413;BME280;3239;48.714;9.472;2023-04-08T02:11:52;98907.50;;;7.49;100.00
6413;BME280;3239;48.714;9.472;2023-04-08T02:14:17;98904.78;;;7.49;100.00
6413;BME280;3239;48.714;9.472;2023-04-08T02:16:54;98904.31;;;7.51;100.00
6413;BME280;3239;48.714;9.472;2023-04-08T02:19:31;98908.78;;;7.54;100.00
6413;BME280;3239;48.714;9.472;2023-04-08T02:22:10;98902.53;;;7.48;100.00
6413;BME280;3239;48.714;9.472;2023-04-08T02:24:38;98907.75;;;7.51;100.00
6413;BME280;3239;48.714;9.472;2023-04-08T02:27:06;98909.47;;;7.49;100.00
6413;BME280;3239;48.714;9.472;2023-04-08T02:29:34;98915.69;;;7.49;100.00
6413;BME280;3239;48.714;9.472;2023-04-08T02:32:03;98910.50;;;7.51;100.00
6413;BME280;3239;48.714;9.472;2023-04-08T02:34:30;98906.81;;;7.54;100.00
6413;BME280;3239;48.714;9.472;2023-04-08T02:36:57;98906.56;;;7.52;100.00
6413;BME280;3239;48.714;9.472;2023-04-08T02:39:31;98904.84;;;7.55;100.00
6413;BME280;3239;48.714;9.472;2023-04-08T02:41:57;98907.81;;;7.57;100.00
6413;BME280;3239;48.714;9.472;2023-04-08T02:44:23;98906.63;;;7.63;100.00
6413;BME280;3239;48.714;9.472;2023-04-08T02:46:49;98904.56;;;7.53;100.00
6413;BME280;3239;48.714;9.472;2023-04-08T02:49:15;98901.09;;;7.52;100.00
6413;BME280;3239;48.714;9.472;2023-04-08T02:51:40;98904.88;;;7.60;100.00
6413;BME280;3239;48.714;9.472;2023-04-08T02:54:06;98903.06;;;7.52;100.00
6413;BME280;3239;48.714;9.472;2023-04-08T02:56:32;98892.16;;;7.52;100.00
6413;BME280;3239;48.714;9.472;2023-04-08T02:58:58;98898.31;;;7.47;100.00
6413;BME280;3239;48.714;9.472;2023-04-08T03:01:23;98894.06;;;7.40;100.00
6413;BME280;3239;48.714;9.472;2023-04-08T03:03:49;98897.63;;;7.52;100.00
6413;BME280;3239;48.714;9.472;2023-04-08T03:06:15;98897.84;;;7.48;100.00
6413;BME280;3239;48.714;9.472;2023-04-08T03:08:41;98895.38;;;7.50;100.00
6413;BME280;3239;48.714;9.472;2023-04-08T03:11:07;98897.91;;;7.59;100.00
6413;BME280;3239;48.714;9.472;2023-04-08T03:13:32;98897.69;;;7.63;100.00
6413;BME280;3239;48.714;9.472;2023-04-08T03:16:00;98893.97;;;7.60;100.00
6413;BME280;3239;48.714;9.472;2023-04-08T03:18:25;98899.41;;;7.60;100.00
6413;BME280;3239;48.714;9.472;2023-04-08T03:20:51;98893.44;;;7.56;100.00
6413;BME280;3239;48.714;9.472;2023-04-08T03:23:17;98896.16;;;7.56;100.00
6413;BME280;3239;48.714;9.472;2023-04-08T03:25:43;98894.72;;;7.61;100.00
6413;BME280;3239;48.714;9.472;2023-04-08T03:28:08;98885.97;;;7.51;100.00
6413;BME280;3239;48.714;9.472;2023-04-08T03:30:34;98890.16;;;7.47;100.00
6413;BME280;3239;48.714;9.472;2023-04-08T03:33:00;98889.91;;;7.50;100.00
6413;BME280;3239;48.714;9.472;2023-04-08T03:35:28;98893.88;;;7.49;100.00
6413;BME280;3239;48.714;9.472;2023-04-08T03:37:53;98893.41;;;7.51;100.00
6413;BME280;3239;48.714;9.472;2023-04-08T03:40:20;98898.84;;;7.51;100.00
6413;BME280;3239;48.714;9.472;2023-04-08T03:42:45;98892.94;;;7.52;100.00
6413;BME280;3239;48.714;9.472;2023-04-08T03:45:11;98895.41;;;7.56;100.00
6413;BME280;3239;48.714;9.472;2023-04-08T03:47:37;98887.25;;;7.56;100.00
6413;BME280;3239;48.714;9.472;2023-04-08T03:50:03;98888.25;;;7.58;100.00
6413;BME280;3239;48.714;9.472;2023-04-08T03:52:29;98887.00;;;7.59;100.00
6413;BME280;3239;48.714;9.472;2023-04-08T03:54:54;98883.31;;;7.62;100.00
6413;BME280;3239;48.714;9.472;2023-04-08T03:57:20;98870.16;;;7.61;100.00
6413;BME280;3239;48.714;9.472;2023-04-08T03:59:46;98877.34;;;7.58;100.00
6413;BME280;3239;48.714;9.472;2023-04-08T04:02:12;98874.09;;;7.54;100.00
6413;BME280;3239;48.714;9.472;2023-04-08T04:04:37;98874.78;;;7.49;100.00
6413;BME280;3239;48.714;9.472;2023-04-08T04:07:03;98866.63;;;7.49;100.00
6413;BME280;3239;48.714;9.472;2023-04-08T04:09:29;98860.91;;;7.47;100.00
6413;BME280;3239;48.714;9.472;2023-04-08T04:11:55;98864.34;;;7.42;100.00
6413;BME280;3239;48.714;9.472;2023-04-08T04:14:20;98856.91;;;7.43;100.00
6413;BME280;3239;48.714;9.472;2023-04-08T04:16:46;98861.63;;;7.42;100.00
6413;BME280;3239;48.714;9.472;2023-04-08T04:19:12;98863.34;;;7.40;100.00
6413;BME280;3239;48.714;9.472;2023-04-08T04:21:38;98859.59;;;7.37;100.00
6413;BME280;3239;48.714;9.472;2023-04-08T04:24:04;98855.13;;;7.34;100.00
6413;BME280;3239;48.714;9.472;2023-04-08T04:26:30;98855.59;;;7.33;100.00
6413;BME280;3239;48.714;9.472;2023-04-08T04:28:55;98855.81;;;7.29;100.00
6413;BME280;3239;48.714;9.472;2023-04-08T04:31:23;98858.00;;;7.25;100.00
6413;BME280;3239;48.714;9.472;2023-04-08T04:33:51;98857.28;;;7.25;100.00
6413;BME280;3239;48.714;9.472;2023-04-08T04:36:17;98849.81;;;7.20;100.00
6413;BME280;3239;48.714;9.472;2023-04-08T04:38:43;98851.53;;;7.17;100.00
6413;BME280;3239;48.714;9.472;2023-04-08T04:41:09;98846.06;;;7.17;100.00
6413;BME280;3239;48.714;9.472;2023-04-08T04:43:35;98849.03;;;7.14;100.00
6413;BME280;3239;48.714;9.472;2023-04-08T04:46:01;98845.53;;;7.13;100.00
6413;BME280;3239;48.714;9.472;2023-04-08T04:48:28;98853.72;;;7.13;100.00
6413;BME280;3239;48.714;9.472;2023-04-08T04:50:59;98853.00;;;7.13;100.00
6413;BME280;3239;48.714;9.472;2023-04-08T04:53:27;98855.72;;;7.13;100.00
6413;BME280;3239;48.714;9.472;2023-04-08T04:55:53;98860.41;;;7.12;100.00
6413;BME280;3239;48.714;9.472;2023-04-08T04:58:20;98863.13;;;7.12;100.00
6413;BME280;3239;48.714;9.472;2023-04-08T05:00:45;98868.84;;;7.14;100.00
6413;BME280;3239;48.714;9.472;2023-04-08T05:03:12;98871.09;;;7.16;100.00
6413;BME280;3239;48.714;9.472;2023-04-08T05:05:37;98871.78;;;7.11;100.00
6413;BME280;3239;48.714;9.472;2023-04-08T05:08:04;98878.25;;;7.13;100.00
6413;BME280;3239;48.714;9.472;2023-04-08T05:10:29;98881.50;;;7.17;100.00
6413;BME280;3239;48.714;9.472;2023-04-08T05:12:55;98878.78;;;7.17;100.00
6413;BME280;3239;48.714;9.472;2023-04-08T05:15:21;98872.47;;;7.06;100.00
6413;BME280;3239;48.714;9.472;2023-04-08T05:17:47;98879.66;;;7.03;100.00
6413;BME280;3239;48.714;9.472;2023-04-08T05:20:12;98889.06;;;7.02;100.00
6413;BME280;3239;48.714;9.472;2023-04-08T05:22:38;98883.22;;;7.15;100.00
6413;BME280;3239;48.714;9.472;2023-04-08T05:25:05;98893.41;;;7.20;100.00
6413;BME280;3239;48.714;9.472;2023-04-08T05:27:31;98902.38;;;7.26;100.00
6413;BME280;3239;48.714;9.472;2023-04-08T05:29:56;98901.44;;;7.29;100.00
6413;BME280;3239;48.714;9.472;2023-04-08T05:32:22;98898.94;;;7.31;100.00
6413;BME280;3239;48.714;9.472;2023-04-08T05:34:48;98902.13;;;7.24;100.00
6413;BME280;3239;48.714;9.472;2023-04-08T05:37:13;98895.59;;;7.16;100.00
6413;BME280;3239;48.714;9.472;2023-04-08T05:39:39;98898.31;;;7.16;100.00
6413;BME280;3239;48.714;9.472;2023-04-08T05:42:05;98901.06;;;7.16;100.00
6413;BME280;3239;48.714;9.472;2023-04-08T05:44:31;98904.16;;;7.29;100.00
6413;BME280;3239;48.714;9.472;2023-04-08T05:46:57;98903.63;;;7.25;100.00
6413;BME280;3239;48.714;9.472;2023-04-08T05:49:23;98913.03;;;7.24;100.00
6413;BME280;3239;48.714;9.472;2023-04-08T05:51:48;98918.09;;;7.36;100.00
6413;BME280;3239;48.714;9.472;2023-04-08T05:54:14;98915.78;;;7.29;100.00
6413;BME280;3239;48.714;9.472;2023-04-08T05:56:40;98921.50;;;7.31;100.00
6413;BME280;3239;48.714;9.472;2023-04-08T05:59:06;98931.97;;;7.38;100.00
6413;BME280;3239;48.714;9.472;2023-04-08T06:01:31;98925.34;;;7.45;100.00
6413;BME280;3239;48.714;9.472;2023-04-08T06:03:57;98931.50;;;7.40;100.00
6413;BME280;3239;48.714;9.472;2023-04-08T06:06:23;98932.91;;;7.30;100.00
6413;BME280;3239;48.714;9.472;2023-04-08T06:08:50;98946.56;;;7.35;100.00
6413;BME280;3239;48.714;9.472;2023-04-08T06:11:17;98942.41;;;7.40;100.00
6413;BME280;3239;48.714;9.472;2023-04-08T06:13:42;98946.94;;;7.48;100.00
6413;BME280;3239;48.714;9.472;2023-04-08T06:16:15;98946.38;;;7.44;100.00
6413;BME280;3239;48.714;9.472;2023-04-08T06:18:42;98949.72;;;7.59;100.00
6413;BME280;3239;48.714;9.472;2023-04-08T06:21:09;98942.72;;;7.47;100.00
6413;BME280;3239;48.714;9.472;2023-04-08T06:23:34;98942.47;;;7.51;100.00
6413;BME280;3239;48.714;9.472;2023-04-08T06:26:00;98937.75;;;7.51;100.00
6413;BME280;3239;48.714;9.472;2023-04-08T06:28:28;98926.38;;;7.53;100.00
6413;BME280;3239;48.714;9.472;2023-04-08T06:30:55;98931.56;;;7.51;100.00
6413;BME280;3239;48.714;9.472;2023-04-08T06:33:21;98927.38;;;7.55;100.00
6413;BME280;3239;48.714;9.472;2023-04-08T06:35:47;98912.78;;;7.58;100.00
6413;BME280;3239;48.714;9.472;2023-04-08T06:38:12;98913.28;;;7.62;100.00
6413;BME280;3239;48.714;9.472;2023-04-08T06:40:39;98913.81;;;7.61;100.00
6413;BME280;3239;48.714;9.472;2023-04-08T06:43:05;98915.16;;;7.45;100.00
6413;BME280;3239;48.714;9.472;2023-04-08T06:45:35;98912.09;;;7.63;100.00
6413;BME280;3239;48.714;9.472;2023-04-08T06:48:01;98918.50;;;7.60;100.00
6413;BME280;3239;48.714;9.472;2023-04-08T06:50:26;98923.53;;;7.73;100.00
6413;BME280;3239;48.714;9.472;2023-04-08T06:52:52;98915.88;;;7.77;100.00
6413;BME280;3239;48.714;9.472;2023-04-08T06:55:19;98907.94;;;7.73;100.00
6413;BME280;3239;48.714;9.472;2023-04-08T06:57:45;98909.72;;;7.82;100.00
6413;BME280;3239;48.714;9.472;2023-04-08T07:00:11;98899.53;;;7.77;100.00
6413;BME280;3239;48.714;9.472;2023-04-08T07:02:37;98897.56;;;7.83;100.00
6413;BME280;3239;48.714;9.472;2023-04-08T07:05:03;98892.19;;;7.99;100.00
6413;BME280;3239;48.714;9.472;2023-04-08T07:07:29;98886.81;;;8.16;100.00
6413;BME280;3239;48.714;9.472;2023-04-08T07:09:55;98880.66;;;8.21;100.00
6413;BME280;3239;48.714;9.472;2023-04-08T07:12:20;98873.22;;;8.21;100.00
6413;BME280;3239;48.714;9.472;2023-04-08T07:14:46;98865.47;;;8.14;100.00
6413;BME280;3239;48.714;9.472;2023-04-08T07:17:12;98856.78;;;8.16;100.00
6413;BME280;3239;48.714;9.472;2023-04-08T07:19:37;98854.53;;;8.09;100.00
6413;BME280;3239;48.714;9.472;2023-04-08T07:22:03;98847.19;;;8.26;100.00
6413;BME280;3239;48.714;9.472;2023-04-08T07:24:29;98853.88;;;8.25;100.00
6413;BME280;3239;48.714;9.472;2023-04-08T07:26:54;98850.47;;;8.41;100.00
6413;BME280;3239;48.714;9.472;2023-04-08T07:29:21;98846.97;;;8.35;100.00
6413;BME280;3239;48.714;9.472;2023-04-08T07:31:47;98845.56;;;8.78;100.00
6413;BME280;3239;48.714;9.472;2023-04-08T07:34:12;98838.59;;;8.93;100.00
6413;BME280;3239;48.714;9.472;2023-04-08T07:36:38;98834.63;;;9.22;100.00
6413;BME280;3239;48.714;9.472;2023-04-08T07:39:05;98832.66;;;9.11;100.00
6413;BME280;3239;48.714;9.472;2023-04-08T07:41:30;98820.22;;;9.16;100.00
6413;BME280;3239;48.714;9.472;2023-04-08T07:43:56;98805.03;;;9.20;100.00
6413;BME280;3239;48.714;9.472;2023-04-08T07:46:22;98800.53;;;9.50;100.00
6413;BME280;3239;48.714;9.472;2023-04-08T07:48:48;98790.56;;;9.53;100.00
6413;BME280;3239;48.714;9.472;2023-04-08T07:51:14;98784.75;;;9.78;100.00
6413;BME280;3239;48.714;9.472;2023-04-08T07:53:39;98762.50;;;9.47;100.00
6413;BME280;3239;48.714;9.472;2023-04-08T07:56:13;98752.84;;;9.35;100.00
6413;BME280;3239;48.714;9.472;2023-04-08T07:58:40;98748.63;;;9.28;100.00
6413;BME280;3239;48.714;9.472;2023-04-08T08:01:35;98747.09;;;9.38;100.00
6413;BME280;3239;48.714;9.472;2023-04-08T08:04:01;98742.84;;;9.48;100.00
6413;BME280;3239;48.714;9.472;2023-04-08T08:06:28;98743.31;;;9.63;100.00
6413;BME280;3239;48.714;9.472;2023-04-08T08:08:54;98738.38;;;9.45;100.00
6413;BME280;3239;48.714;9.472;2023-04-08T08:11:20;98748.03;;;9.63;100.00
6413;BME280;3239;48.714;9.472;2023-04-08T08:13:46;98741.03;;;9.67;100.00
6413;BME280;3239;48.714;9.472;2023-04-08T08:16:12;98750.72;;;9.68;100.00
6413;BME280;3239;48.714;9.472;2023-04-08T08:18:39;98745.72;;;9.78;100.00
6413;BME280;3239;48.714;9.472;2023-04-08T08:21:05;98742.44;;;9.85;100.00
6413;BME280;3239;48.714;9.472;2023-04-08T08:23:31;98741.84;;;10.14;100.00
6413;BME280;3239;48.714;9.472;2023-04-08T08:26:06;98737.91;;;9.98;100.00
6413;BME280;3239;48.714;9.472;2023-04-08T08:28:34;98735.88;;;10.10;100.00
6413;BME280;3239;48.714;9.472;2023-04-08T08:31:00;98724.22;;;9.98;100.00
6413;BME280;3239;48.714;9.472;2023-04-08T08:33:25;98717.66;;;10.18;100.00
6413;BME280;3239;48.714;9.472;2023-04-08T08:35:51;98711.16;;;10.56;100.00
6413;BME280;3239;48.714;9.472;2023-04-08T08:38:17;98698.56;;;10.71;100.00
6413;BME280;3239;48.714;9.472;2023-04-08T08:40:44;98703.91;;;11.12;100.00
6413;BME280;3239;48.714;9.472;2023-04-08T08:43:10;98689.78;;;12.06;100.00
6413;BME280;3239;48.714;9.472;2023-04-08T08:45:42;98671.59;;;12.66;100.00
6413;BME280;3239;48.714;9.472;2023-04-08T08:48:08;98648.25;;;12.72;100.00
6413;BME280;3239;48.714;9.472;2023-04-08T08:50:34;98644.56;;;13.09;100.00
6413;BME280;3239;48.714;9.472;2023-04-08T08:53:01;98634.19;;;12.76;100.00
6413;BME280;3239;48.714;9.472;2023-04-08T08:55:30;98629.19;;;12.61;100.00
6413;BME280;3239;48.714;9.472;2023-04-08T08:57:59;98630.03;;;12.56;100.00
6413;BME280;3239;48.714;9.472;2023-04-08T09:00:40;98641.00;;;13.27;100.00
6413;BME280;3239;48.714;9.472;2023-04-08T09:03:24;98635.16;;;12.91;100.00
6413;BME280;3239;48.714;9.472;2023-04-08T09:05:55;98639.16;;;12.90;100.00
6413;BME280;3239;48.714;9.472;2023-04-08T09:08:36;98633.91;;;13.05;100.00
6413;BME280;3239;48.714;9.472;2023-04-08T09:11:17;98628.69;;;12.31;100.00
6413;BME280;3239;48.714;9.472;2023-04-08T09:13:44;98634.97;;;13.15;100.00
6413;BME280;3239;48.714;9.472;2023-04-08T09:16:13;98635.25;;;13.38;100.00
6413;BME280;3239;48.714;9.472;2023-04-08T09:18:41;98624.16;;;13.43;100.00
6413;BME280;3239;48.714;9.472;2023-04-08T09:21:10;98626.94;;;13.97;100.00
6413;BME280;3239;48.714;9.472;2023-04-08T09:23:50;98624.97;;;13.51;100.00
6413;BME280;3239;48.714;9.472;2023-04-08T09:26:22;98624.47;;;14.07;100.00
6413;BME280;3239;48.714;9.472;2023-04-08T09:31:33;98615.16;;;14.30;100.00
6413;BME280;3239;48.714;9.472;2023-04-08T09:34:15;98607.75;;;14.25;100.00
6413;BME280;3239;48.714;9.472;2023-04-08T09:36:42;98611.47;;;13.74;100.00
6413;BME280;3239;48.714;9.472;2023-04-08T09:39:09;98608.00;;;14.14;100.00
6413;BME280;3239;48.714;9.472;2023-04-08T09:41:37;98608.34;;;13.44;100.00
6413;BME280;3239;48.714;9.472;2023-04-08T09:44:09;98608.34;;;14.11;100.00
6413;BME280;3239;48.714;9.472;2023-04-08T09:52:06;98599.44;;;14.38;100.00
6413;BME280;3239;48.714;9.472;2023-04-08T09:57:09;98595.19;;;15.72;100.00
6413;BME280;3239;48.714;9.472;2023-04-08T09:59:42;98589.00;;;14.24;100.00
6413;BME280;3239;48.714;9.472;2023-04-08T10:02:10;98596.91;;;13.06;100.00
6413;BME280;3239;48.714;9.472;2023-04-08T10:04:44;98602.75;;;14.03;100.00
6413;BME280;3239;48.714;9.472;2023-04-08T10:07:13;98600.09;;;13.57;100.00
6413;BME280;3239;48.714;9.472;2023-04-08T10:09:40;98604.25;;;13.71;100.00
6413;BME280;3239;48.714;9.472;2023-04-08T10:12:08;98593.41;;;13.52;100.00
6413;BME280;3239;48.714;9.472;2023-04-08T10:14:34;98597.25;;;13.49;100.00
6413;BME280;3239;48.714;9.472;2023-04-08T10:17:24;98598.28;;;13.59;100.00
6413;BME280;3239;48.714;9.472;2023-04-08T10:19:52;98602.94;;;13.51;100.00
6413;BME280;3239;48.714;9.472;2023-04-08T10:27:44;98605.56;;;12.40;100.00
6413;BME280;3239;48.714;9.472;2023-04-08T10:32:59;98610.53;;;12.28;100.00
6413;BME280;3239;48.714;9.472;2023-04-08T10:35:34;98613.81;;;11.77;100.00
6413;BME280;3239;48.714;9.472;2023-04-08T10:38:01;98612.34;;;11.76;100.00
6413;BME280;3239;48.714;9.472;2023-04-08T10:40:27;98609.31;;;11.61;100.00
6413;BME280;3239;48.714;9.472;2023-04-08T10:42:57;98615.81;;;11.76;100.00
6413;BME280;3239;48.714;9.472;2023-04-08T10:45:23;98608.09;;;11.93;100.00
6413;BME280;3239;48.714;9.472;2023-04-08T10:47:49;98611.00;;;12.14;100.00
6413;BME280;3239;48.714;9.472;2023-04-08T10:50:17;98613.66;;;11.88;100.00
6413;BME280;3239;48.714;9.472;2023-04-08T10:52:52;98620.50;;;11.81;100.00
6413;BME280;3239;48.714;9.472;2023-04-08T10:55:23;98622.91;;;11.72;100.00
6413;BME280;3239;48.714;9.472;2023-04-08T10:57:50;98620.22;;;11.66;100.00
6413;BME280;3239;48.714;9.472;2023-04-08T11:00:33;98619.00;;;11.43;100.00
6413;BME280;3239;48.714;9.472;2023-04-08T11:03:01;98622.69;;;11.27;100.00
6413;BME280;3239;48.714;9.472;2023-04-08T11:05:27;98625.59;;;11.35;100.00
6413;BME280;3239;48.714;9.472;2023-04-08T11:07:53;98622.63;;;11.33;100.00
6413;BME280;3239;48.714;9.472;2023-04-08T11:10:19;98617.94;;;11.46;100.00
6413;BME280;3239;48.714;9.472;2023-04-08T11:12:45;98610.13;;;11.37;100.00
6413;BME280;3239;48.714;9.472;2023-04-08T11:15:12;98618.44;;;11.69;100.00
6413;BME280;3239;48.714;9.472;2023-04-08T11:17:38;98619.91;;;11.70;100.00
6413;BME280;3239;48.714;9.472;2023-04-08T11:20:05;98613.06;;;11.58;100.00
6413;BME280;3239;48.714;9.472;2023-04-08T11:22:32;98615.16;;;11.33;100.00
6413;BME280;3239;48.714;9.472;2023-04-08T11:24:59;98606.16;;;11.33;100.00
6413;BME280;3239;48.714;9.472;2023-04-08T11:27:26;98613.47;;;11.67;100.00
6413;BME280;3239;48.714;9.472;2023-04-08T11:29:54;98605.94;;;11.49;100.00
6413;BME280;3239;48.714;9.472;2023-04-08T11:32:21;98598.19;;;11.72;100.00
6413;BME280;3239;48.714;9.472;2023-04-08T11:34:48;98605.72;;;11.66;100.00
6413;BME280;3239;48.714;9.472;2023-04-08T11:37:14;98601.50;;;11.46;100.00
6413;BME280;3239;48.714;9.472;2023-04-08T11:39:44;98606.63;;;11.55;100.00
6413;BME280;3239;48.714;9.472;2023-04-08T11:42:31;98596.81;;;11.78;100.00
6413;BME280;3239;48.714;9.472;2023-04-08T11:44:57;98607.63;;;11.89;100.00
6413;BME280;3239;48.714;9.472;2023-04-08T11:47:33;98601.16;;;11.74;100.00
6413;BME280;3239;48.714;9.472;2023-04-08T11:49:59;98606.69;;;11.68;100.00
6413;BME280;3239;48.714;9.472;2023-04-08T11:52:47;98602.59;;;11.38;100.00
6413;BME280;3239;48.714;9.472;2023-04-08T11:55:26;98597.28;;;11.64;100.00
6413;BME280;3239;48.714;9.472;2023-04-08T11:57:54;98590.47;;;11.52;100.00
6413;BME280;3239;48.714;9.472;2023-04-08T12:00:21;98599.06;;;11.61;100.00
6413;BME280;3239;48.714;9.472;2023-04-08T12:02:47;98595.94;;;11.33;100.00
6413;BME280;3239;48.714;9.472;2023-04-08T12:05:16;98598.38;;;11.55;100.00
6413;BME280;3239;48.714;9.472;2023-04-08T12:07:43;98589.88;;;11.59;100.00
6413;BME280;3239;48.714;9.472;2023-04-08T12:10:10;98599.25;;;11.45;100.00
6413;BME280;3239;48.714;9.472;2023-04-08T12:12:36;98602.09;;;11.39;100.00
6413;BME280;3239;48.714;9.472;2023-04-08T12:15:03;98600.94;;;11.72;100.00
6413;BME280;3239;48.714;9.472;2023-04-08T12:17:29;98608.56;;;11.79;100.00
6413;BME280;3239;48.714;9.472;2023-04-08T12:19:54;98603.66;;;11.90;100.00
6413;BME280;3239;48.714;9.472;2023-04-08T12:22:21;98607.09;;;11.78;100.00
6413;BME280;3239;48.714;9.472;2023-04-08T12:24:46;98605.44;;;11.88;100.00
6413;BME280;3239;48.714;9.472;2023-04-08T12:27:12;98611.97;;;11.85;100.00
6413;BME280;3239;48.714;9.472;2023-04-08T12:29:38;98613.13;;;11.89;100.00
6413;BME280;3239;48.714;9.472;2023-04-08T12:32:04;98618.38;;;11.74;100.00
6413;BME280;3239;48.714;9.472;2023-04-08T12:34:31;98611.66;;;11.88;100.00
6413;BME280;3239;48.714;9.472;2023-04-08T12:36:57;98615.81;;;11.76;100.00
6413;BME280;3239;48.714;9.472;2023-04-08T12:39:24;98607.59;;;11.76;100.00
6413;BME280;3239;48.714;9.472;2023-04-08T12:41:50;98604.13;;;12.07;100.00
6413;BME280;3239;48.714;9.472;2023-04-08T12:44:16;98612.91;;;12.19;100.00
6413;BME280;3239;48.714;9.472;2023-04-08T12:46:41;98614.84;;;11.92;100.00
6413;BME280;3239;48.714;9.472;2023-04-08T12:49:07;98611.44;;;11.49;100.00
6413;BME280;3239;48.714;9.472;2023-04-08T12:51:34;98613.53;;;11.43;100.00
6413;BME280;3239;48.714;9.472;2023-04-08T12:54:03;98609.50;;;11.44;100.00
6413;BME280;3239;48.714;9.472;2023-04-08T12:56:30;98606.31;;;11.40;100.00
6413;BME280;3239;48.714;9.472;2023-04-08T12:58:58;98617.91;;;11.70;100.00
6413;BME280;3239;48.714;9.472;2023-04-08T13:01:24;98613.00;;;11.82;100.00
6413;BME280;3239;48.714;9.472;2023-04-08T13:03:50;98603.34;;;11.38;100.00
6413;BME280;3239;48.714;9.472;2023-04-08T13:06:15;98613.47;;;11.06;100.00
6413;BME280;3239;48.714;9.472;2023-04-08T13:08:41;98607.47;;;11.26;100.00
6413;BME280;3239;48.714;9.472;2023-04-08T13:11:07;98610.81;;;11.19;100.00
6413;BME280;3239;48.714;9.472;2023-04-08T13:13:33;98612.50;;;11.04;100.00
6413;BME280;3239;48.714;9.472;2023-04-08T13:15:59;98610.75;;;11.06;100.00
6413;BME280;3239;48.714;9.472;2023-04-08T13:18:26;98613.09;;;11.15;100.00
6413;BME280;3239;48.714;9.472;2023-04-08T13:20:52;98615.19;;;11.28;100.00
6413;BME280;3239;48.714;9.472;2023-04-08T13:23:19;98608.94;;;10.90;100.00
6413;BME280;3239;48.714;9.472;2023-04-08T13:25:46;98616.94;;;11.07;100.00
6413;BME280;3239;48.714;9.472;2023-04-08T13:28:12;98618.50;;;11.02;100.00
6413;BME280;3239;48.714;9.472;2023-04-08T13:30:38;98607.25;;;11.06;100.00
6413;BME280;3239;48.714;9.472;2023-04-08T13:33:04;98610.34;;;10.97;100.00
6413;BME280;3239;48.714;9.472;2023-04-08T13:35:30;98614.97;;;11.07;100.00
6413;BME280;3239;48.714;9.472;2023-04-08T13:37:56;98605.91;;;10.94;100.00
6413;BME280;3239;48.714;9.472;2023-04-08T13:40:21;98606.19;;;10.90;100.00
6413;BME280;3239;48.714;9.472;2023-04-08T13:42:47;98610.56;;;10.99;100.00
6413;BME280;3239;48.714;9.472;2023-04-08T13:45:14;98611.34;;;10.75;100.00